Time;durP1;ratioP1;P1;durP2;ratioP2;P2;SDS_P1;SDS_P2;PMS_P1;PMS_P2;Temp;Humidity;BMP_temperature;BMP_pressure;BME280_temperature;BME280_humidity;BME280_pressure;Samples;Min_cycle;Max_cycle;Signal;HPM_P1;HPM_P2
2022/09/28 00:00:40;;;;;;;6.22;4.38;;;9.50;99.90;;;;;;4954233;28;20130;-81
2022/09/28 00:03:08;;;;;;;6.68;4.97;;;9.50;99.90;;;;;;4959210;28;20038;-80
2022/09/28 00:05:36;;;;;;;6.32;4.97;;;9.40;99.90;;;;;;4963337;28;20090;-80
2022/09/28 00:08:01;;;;;;;6.00;4.82;;;9.50;99.90;;;;;;4965881;28;20090;-78
2022/09/28 00:10:29;;;;;;;6.28;4.63;;;9.50;99.90;;;;;;4962537;28;20074;-78
2022/09/28 00:12:55;;;;;;;4.88;4.47;;;9.50;99.90;;;;;;4967049;28;20034;-81
2022/09/28 00:15:21;;;;;;;6.68;4.80;;;9.50;99.90;;;;;;4945469;28;20481;-79
2022/09/28 00:17:47;;;;;;;5.30;4.72;;;9.50;99.90;;;;;;4964072;28;20420;-80
2022/09/28 00:20:13;;;;;;;8.18;4.35;;;9.50;99.90;;;;;;4955316;28;20041;-77
2022/09/28 00:22:38;;;;;;;5.25;4.45;;;9.50;99.90;;;;;;4964135;28;20031;-79
2022/09/28 00:25:06;;;;;;;5.15;4.70;;;9.50;99.90;;;;;;4967804;28;20018;-78
2022/09/28 00:27:31;;;;;;;7.60;4.50;;;9.50;99.90;;;;;;4964043;28;20039;-81
2022/09/28 00:29:59;;;;;;;6.85;4.53;;;9.50;99.90;;;;;;4966701;28;20060;-79
2022/09/28 00:32:25;;;;;;;5.60;5.10;;;9.60;99.90;;;;;;4960520;28;20054;-78
2022/09/28 00:34:51;;;;;;;5.93;4.63;;;9.60;99.90;;;;;;4958840;28;20143;-77
2022/09/28 00:37:18;;;;;;;5.13;4.65;;;9.50;99.90;;;;;;4960832;28;20037;-78
2022/09/28 00:39:45;;;;;;;6.03;5.07;;;9.50;99.90;;;;;;4957799;28;20031;-78
2022/09/28 00:42:14;;;;;;;5.15;4.70;;;9.60;99.90;;;;;;4963730;28;20042;-79
2022/09/28 00:44:46;;;;;;;6.03;4.85;;;9.60;99.90;;;;;;4964511;28;20041;-76
2022/09/28 00:47:39;;;;;;;6.05;5.40;;;9.60;99.90;;;;;;4956027;28;20603;-78
2022/09/28 00:50:25;;;;;;;6.18;5.18;;;9.60;99.90;;;;;;4943580;28;20030;-78
2022/09/28 00:52:59;;;;;;;6.65;5.20;;;9.60;99.90;;;;;;4950642;28;20031;-78
2022/09/28 00:55:44;;;;;;;5.90;5.32;;;9.60;99.90;;;;;;4964138;28;20377;-77
2022/09/28 00:58:15;;;;;;;5.57;5.07;;;9.60;99.90;;;;;;4960847;28;20034;-79
2022/09/28 01:00:41;;;;;;;7.20;5.75;;;9.50;99.90;;;;;;4960210;28;20028;-79
2022/09/28 01:03:07;;;;;;;5.75;5.15;;;9.50;99.90;;;;;;4962486;28;20464;-80
2022/09/28 01:05:35;;;;;;;8.70;5.88;;;9.60;99.90;;;;;;4967378;28;20090;-79
2022/09/28 01:08:06;;;;;;;12.32;6.40;;;9.60;99.90;;;;;;4940909;28;20643;-79
2022/09/28 01:10:35;;;;;;;10.52;6.20;;;9.60;99.90;;;;;;4958860;28;20027;-80
2022/09/28 01:13:03;;;;;;;9.82;5.97;;;9.60;99.90;;;;;;4960803;28;20102;-78
2022/09/28 01:15:29;;;;;;;7.85;6.53;;;9.60;99.90;;;;;;4962303;28;20051;-78
2022/09/28 01:18:07;;;;;;;13.23;6.93;;;9.70;99.90;;;;;;4955852;28;20026;-80
2022/09/28 01:20:58;;;;;;;7.57;6.78;;;9.70;99.90;;;;;;4964548;28;20365;-78
2022/09/28 01:24:00;;;;;;;12.63;8.20;;;9.70;99.90;;;;;;4962501;28;20046;-80
2022/09/28 01:26:39;;;;;;;10.65;8.13;;;9.70;99.90;;;;;;4963770;28;20054;-79
2022/09/28 01:29:18;;;;;;;12.13;8.25;;;9.60;99.90;;;;;;4962394;28;20031;-80
2022/09/28 01:31:51;;;;;;;12.23;7.97;;;9.70;99.90;;;;;;4951368;28;20027;-78
2022/09/28 01:34:27;;;;;;;13.70;8.88;;;9.70;99.90;;;;;;4963505;28;20023;-79
2022/09/28 01:36:57;;;;;;;15.70;8.77;;;9.80;99.90;;;;;;4964416;28;20059;-79
2022/09/28 01:39:32;;;;;;;13.60;9.45;;;9.80;99.90;;;;;;4962582;28;20018;-80
2022/09/28 01:42:03;;;;;;;13.43;9.48;;;9.80;99.90;;;;;;4945836;28;20472;-79
2022/09/28 01:44:31;;;;;;;16.25;10.15;;;9.80;99.90;;;;;;4958436;28;20026;-78
2022/09/28 01:47:03;;;;;;;15.20;10.45;;;9.70;99.90;;;;;;4960178;28;20083;-77
2022/09/28 01:49:40;;;;;;;20.00;11.15;;;9.70;99.90;;;;;;4956470;28;20042;-76
2022/09/28 01:52:19;;;;;;;12.35;9.65;;;9.70;99.90;;;;;;4967478;28;20070;-79
2022/09/28 01:54:52;;;;;;;16.25;10.27;;;9.70;99.90;;;;;;4966281;28;20027;-78
2022/09/28 01:57:25;;;;;;;15.20;10.10;;;9.70;99.90;;;;;;4964149;28;20018;-77
2022/09/28 02:00:06;;;;;;;13.60;9.85;;;9.70;99.90;;;;;;4965112;28;20464;-79
2022/09/28 02:02:47;;;;;;;12.43;9.52;;;9.70;99.90;;;;;;4963823;28;20083;-78
2022/09/28 02:05:20;;;;;;;16.77;10.00;;;9.70;99.90;;;;;;4967168;28;20026;-78
2022/09/28 02:08:16;;;;;;;16.13;10.25;;;9.70;99.90;;;;;;4966532;28;20341;-79
2022/09/28 02:10:49;;;;;;;12.07;10.10;;;9.70;99.90;;;;;;4963909;28;20033;-79
2022/09/28 02:13:40;;;;;;;14.60;9.93;;;9.70;99.90;;;;;;4964785;28;20572;-77
2022/09/28 02:16:21;;;;;;;13.20;9.85;;;9.70;99.90;;;;;;4963579;28;20439;-78
2022/09/28 02:18:52;;;;;;;14.35;9.68;;;9.70;99.90;;;;;;4965845;28;20094;-78
2022/09/28 02:21:46;;;;;;;15.68;9.43;;;9.80;99.90;;;;;;4965090;28;20035;-79
2022/09/28 02:24:22;;;;;;;14.20;10.55;;;9.80;99.90;;;;;;4951515;28;20049;-76
2022/09/28 02:26:49;;;;;;;14.18;10.23;;;9.80;99.90;;;;;;4967370;28;20086;-78
2022/09/28 02:29:17;;;;;;;16.02;9.02;;;9.80;99.90;;;;;;4948579;28;20448;-77
2022/09/28 02:31:47;;;;;;;15.48;9.57;;;9.80;99.90;;;;;;4966566;28;20035;-79
2022/09/28 02:34:13;;;;;;;11.30;9.40;;;9.90;99.90;;;;;;4965743;28;20051;-79
2022/09/28 02:36:39;;;;;;;14.52;10.07;;;9.80;99.90;;;;;;4948193;28;20042;-79
2022/09/28 02:39:05;;;;;;;12.90;9.50;;;9.90;99.90;;;;;;4969241;28;20042;-78
2022/09/28 02:41:49;;;;;;;17.75;9.77;;;9.90;99.90;;;;;;4966864;28;20039;-78
2022/09/28 02:44:35;;;;;;;16.38;9.75;;;9.90;99.90;;;;;;4968962;28;20015;-79
2022/09/28 02:47:27;;;;;;;15.18;9.50;;;9.80;99.90;;;;;;4962177;28;20027;-77
2022/09/28 02:49:59;;;;;;;13.35;9.32;;;9.80;99.90;;;;;;4962489;28;20035;-78
2022/09/28 02:52:36;;;;;;;14.50;9.40;;;9.80;99.90;;;;;;4956741;28;20221;-76
2022/09/28 02:55:30;;;;;;;15.40;9.20;;;9.80;99.90;;;;;;4973135;28;20531;-78
2022/09/28 02:58:02;;;;;;;14.95;9.80;;;9.70;99.90;;;;;;4946546;28;20027;-78
2022/09/28 03:00:32;;;;;;;13.57;10.18;;;9.70;99.90;;;;;;4963762;28;20448;-77
2022/09/28 03:03:20;;;;;;;14.65;9.93;;;9.70;99.90;;;;;;4962402;28;20035;-78
2022/09/28 03:06:13;;;;;;;17.00;10.55;;;9.70;99.90;;;;;;4963639;28;20153;-78
2022/09/28 03:08:47;;;;;;;16.42;10.40;;;9.70;99.90;;;;;;4949724;28;20110;-78
2022/09/28 03:11:19;;;;;;;18.90;10.80;;;9.70;99.90;;;;;;4966430;28;20448;-78
2022/09/28 03:13:45;;;;;;;17.35;10.60;;;9.70;99.90;;;;;;4966570;28;20034;-78
2022/09/28 03:16:12;;;;;;;16.45;10.55;;;9.70;99.90;;;;;;4956267;28;20181;-78
2022/09/28 03:18:38;;;;;;;14.40;9.93;;;9.70;99.90;;;;;;4961879;28;20375;-78
2022/09/28 03:21:04;;;;;;;15.43;10.13;;;9.60;99.90;;;;;;4962752;28;20019;-78
2022/09/28 03:23:30;;;;;;;16.70;10.25;;;9.60;99.90;;;;;;4967485;28;20018;-76
2022/09/28 03:25:56;;;;;;;14.70;10.60;;;9.60;99.90;;;;;;4954866;28;20130;-78
2022/09/28 03:28:22;;;;;;;16.52;11.02;;;9.60;99.90;;;;;;4963889;28;20027;-78
2022/09/28 03:30:48;;;;;;;21.35;11.38;;;9.50;99.90;;;;;;4964717;28;20063;-77
2022/09/28 03:33:14;;;;;;;15.07;10.52;;;9.50;99.90;;;;;;4963290;28;20026;-78
2022/09/28 03:35:40;;;;;;;17.20;11.23;;;9.50;99.90;;;;;;4963874;28;20023;-77
2022/09/28 03:38:08;;;;;;;21.67;11.70;;;9.40;99.90;;;;;;4962047;28;20034;-78
2022/09/28 03:40:38;;;;;;;20.52;10.63;;;9.40;99.90;;;;;;4962223;28;20027;-78
2022/09/28 03:43:06;;;;;;;19.17;10.70;;;9.40;99.90;;;;;;4965751;28;20030;-78
2022/09/28 03:45:31;;;;;;;19.88;12.07;;;9.40;99.90;;;;;;4946939;28;20059;-78
2022/09/28 03:47:57;;;;;;;18.48;12.60;;;9.40;99.90;;;;;;4963141;28;20074;-78
2022/09/28 03:50:22;;;;;;;18.02;11.82;;;9.40;99.90;;;;;;4967464;28;20039;-78
2022/09/28 03:52:48;;;;;;;18.02;11.77;;;9.40;99.90;;;;;;4958154;28;20034;-78
2022/09/28 03:55:16;;;;;;;16.50;12.30;;;9.40;99.90;;;;;;4947608;28;20262;-79
2022/09/28 03:57:41;;;;;;;21.73;12.35;;;9.50;99.90;;;;;;4963016;28;20031;-79
2022/09/28 04:00:10;;;;;;;20.70;13.05;;;9.40;99.90;;;;;;4962412;28;20038;-79
2022/09/28 04:02:36;;;;;;;20.42;13.55;;;9.50;99.90;;;;;;4963859;28;20027;-79
2022/09/28 04:05:01;;;;;;;20.00;13.15;;;9.50;99.90;;;;;;4960615;28;20029;-78
2022/09/28 04:07:32;;;;;;;19.08;13.13;;;9.50;99.90;;;;;;4945382;28;20035;-79
2022/09/28 04:09:57;;;;;;;20.40;13.35;;;9.50;99.90;;;;;;4963269;28;20503;-79
2022/09/28 04:12:25;;;;;;;23.40;14.88;;;9.40;99.90;;;;;;4970231;28;20026;-78
2022/09/28 04:14:53;;;;;;;19.13;13.70;;;9.40;99.90;;;;;;4947057;28;20027;-79
2022/09/28 04:17:19;;;;;;;23.80;13.90;;;9.50;99.90;;;;;;4962008;28;20053;-79
2022/09/28 04:19:46;;;;;;;21.35;13.52;;;9.50;99.90;;;;;;4949283;28;20413;-79
2022/09/28 04:22:12;;;;;;;24.75;14.00;;;9.60;99.90;;;;;;4960259;28;20049;-79
2022/09/28 04:24:37;;;;;;;21.45;13.85;;;9.60;99.90;;;;;;4959866;28;20441;-79
2022/09/28 04:29:50;;;;;;;21.98;13.73;;;9.60;99.90;;;;;;4959514;28;20102;-79
2022/09/28 04:32:15;;;;;;;25.02;13.77;;;9.70;99.90;;;;;;4950322;28;20414;-79
2022/09/28 04:34:41;;;;;;;19.23;12.65;;;9.80;99.90;;;;;;4970347;28;20078;-77
2022/09/28 04:37:06;;;;;;;19.30;13.18;;;9.80;99.90;;;;;;4960953;28;20118;-77
2022/09/28 04:39:32;;;;;;;24.55;13.48;;;9.80;99.90;;;;;;4962493;28;20349;-78
2022/09/28 04:41:58;;;;;;;19.67;13.70;;;9.80;99.90;;;;;;4949642;28;20027;-79
2022/09/28 04:44:24;;;;;;;24.85;13.10;;;9.80;99.90;;;;;;4962336;28;21084;-79
2022/09/28 04:46:49;;;;;;;17.73;13.35;;;9.80;99.90;;;;;;4960155;28;20031;-77
2022/09/28 04:49:16;;;;;;;20.38;13.77;;;9.80;99.90;;;;;;4964134;28;20030;-80
2022/09/28 04:51:41;;;;;;;21.75;13.73;;;9.80;99.90;;;;;;4945401;28;20089;-79
2022/09/28 04:54:09;;;;;;;24.85;13.13;;;9.80;99.90;;;;;;4958826;28;20023;-78
2022/09/28 04:56:35;;;;;;;19.23;12.85;;;9.80;99.90;;;;;;4959933;28;20034;-77
2022/09/28 04:59:00;;;;;;;21.55;13.48;;;9.80;99.90;;;;;;4962479;28;20617;-79
2022/09/28 05:01:26;;;;;;;20.52;14.35;;;9.80;99.90;;;;;;4947928;28;20086;-79
2022/09/28 05:03:52;;;;;;;21.75;13.95;;;9.80;99.90;;;;;;4959754;28;20035;-79
2022/09/28 05:06:17;;;;;;;18.80;13.25;;;9.90;99.90;;;;;;4962220;28;20082;-77
2022/09/28 05:08:45;;;;;;;22.02;12.95;;;9.90;99.90;;;;;;4962388;28;20758;-77
2022/09/28 05:11:12;;;;;;;19.88;13.82;;;9.90;99.90;;;;;;4952890;28;20039;-78
2022/09/28 05:13:44;;;;;;;20.58;13.43;;;9.90;99.90;;;;;;4958482;28;20027;-80
2022/09/28 05:16:11;;;;;;;18.70;13.13;;;9.90;99.90;;;;;;4960385;28;20023;-74
2022/09/28 05:18:36;;;;;;;17.92;12.82;;;9.90;99.90;;;;;;4962629;28;20074;-79
2022/09/28 05:21:03;;;;;;;20.67;13.60;;;9.90;99.90;;;;;;4962574;28;20031;-79
2022/09/28 05:23:31;;;;;;;18.75;12.95;;;9.90;99.90;;;;;;4966994;28;20039;-74
2022/09/28 05:26:00;;;;;;;17.63;13.05;;;9.80;99.90;;;;;;4957022;28;20425;-78
2022/09/28 05:28:29;;;;;;;19.88;12.65;;;9.80;99.90;;;;;;4965398;28;20460;-79
2022/09/28 05:31:04;;;;;;;19.08;12.35;;;9.80;99.90;;;;;;4965451;28;20491;-77
2022/09/28 05:33:33;;;;;;;21.33;13.73;;;9.80;99.90;;;;;;4965889;28;20027;-78
2022/09/28 05:36:04;;;;;;;22.02;12.00;;;9.80;99.90;;;;;;4968241;28;20088;-80
2022/09/28 05:38:29;;;;;;;21.42;12.68;;;9.80;99.90;;;;;;4953579;28;20106;-81
2022/09/28 05:40:55;;;;;;;18.83;12.60;;;9.80;99.90;;;;;;4968031;28;20106;-80
2022/09/28 05:43:21;;;;;;;19.45;12.52;;;9.80;99.90;;;;;;4965653;28;20058;-79
2022/09/28 05:45:47;;;;;;;19.40;13.82;;;9.80;99.90;;;;;;4966374;28;20039;-80
2022/09/28 05:48:13;;;;;;;24.45;12.68;;;9.80;99.90;;;;;;4966501;28;20023;-80
2022/09/28 05:50:38;;;;;;;17.73;13.38;;;9.80;99.90;;;;;;4968372;28;20086;-78
2022/09/28 05:53:07;;;;;;;18.60;13.45;;;9.80;99.90;;;;;;4968237;28;20444;-79
2022/09/28 05:55:33;;;;;;;17.08;12.88;;;9.80;99.90;;;;;;4966583;28;20023;-77
2022/09/28 05:58:00;;;;;;;21.50;13.40;;;9.80;99.90;;;;;;4951887;28;20609;-79
2022/09/28 06:00:27;;;;;;;20.88;13.45;;;9.90;99.90;;;;;;4954726;28;20023;-79
2022/09/28 06:03:01;;;;;;;19.48;12.93;;;9.90;99.90;;;;;;4965181;28;20566;-78
2022/09/28 06:05:28;;;;;;;25.40;13.65;;;10.00;99.90;;;;;;4968630;28;20440;-79
2022/09/28 06:08:00;;;;;;;21.40;13.77;;;10.00;99.90;;;;;;4963225;28;20026;-79
2022/09/28 06:10:27;;;;;;;17.65;12.00;;;10.00;99.90;;;;;;4965469;28;20050;-80
2022/09/28 06:12:59;;;;;;;18.75;13.02;;;10.00;99.90;;;;;;4964270;28;20066;-79
2022/09/28 06:15:27;;;;;;;21.30;13.23;;;10.10;99.90;;;;;;4967438;28;20105;-78
2022/09/28 06:18:01;;;;;;;19.20;13.55;;;10.10;99.90;;;;;;4968358;28;20070;-79
2022/09/28 06:20:30;;;;;;;17.10;13.18;;;10.10;99.90;;;;;;4967021;28;20105;-80
2022/09/28 06:22:55;;;;;;;18.80;14.65;;;10.10;99.90;;;;;;4962417;28;20425;-77
2022/09/28 06:25:22;;;;;;;20.05;13.80;;;10.10;99.90;;;;;;4964630;28;20054;-80
2022/09/28 06:28:00;;;;;;;23.85;14.60;;;10.10;99.90;;;;;;4965244;28;20038;-79
2022/09/28 06:30:27;;;;;;;27.38;15.32;;;10.10;99.90;;;;;;4967628;28;20030;-77
2022/09/28 06:32:57;;;;;;;22.55;15.48;;;10.10;99.90;;;;;;4966598;28;20030;-79
2022/09/28 06:35:25;;;;;;;25.35;16.52;;;10.10;99.90;;;;;;4962944;28;20028;-79
2022/09/28 06:37:53;;;;;;;29.45;17.10;;;10.10;99.90;;;;;;4945609;28;20113;-79
2022/09/28 06:40:22;;;;;;;27.08;17.90;;;10.10;99.90;;;;;;4961647;28;20019;-78
2022/09/28 06:43:05;;;;;;;32.83;19.30;;;10.10;99.90;;;;;;4964246;28;20034;-79
2022/09/28 06:45:33;;;;;;;39.53;18.85;;;10.10;99.90;;;;;;4964520;28;20041;-79
2022/09/28 06:48:00;;;;;;;29.30;19.23;;;10.10;99.90;;;;;;4965123;28;20106;-79
2022/09/28 06:50:28;;;;;;;30.45;18.50;;;10.20;99.90;;;;;;4964933;28;20034;-76
2022/09/28 06:52:54;;;;;;;26.58;16.63;;;10.20;99.90;;;;;;4963738;28;20030;-77
2022/09/28 06:55:20;;;;;;;25.85;16.65;;;10.20;99.90;;;;;;4962510;28;20475;-78
2022/09/28 06:57:46;;;;;;;24.42;16.00;;;10.20;99.90;;;;;;4952055;28;20027;-79
2022/09/28 07:00:12;;;;;;;24.23;15.00;;;10.20;99.90;;;;;;4964482;28;20046;-78
2022/09/28 07:02:40;;;;;;;27.20;15.38;;;10.30;99.90;;;;;;4965335;28;20105;-79
2022/09/28 07:05:11;;;;;;;20.92;15.15;;;10.30;99.90;;;;;;4949458;28;20022;-79
2022/09/28 07:07:36;;;;;;;23.60;15.02;;;10.40;99.90;;;;;;4962002;28;20034;-79
2022/09/28 07:10:04;;;;;;;25.52;13.90;;;10.40;99.90;;;;;;4963306;28;20039;-77
2022/09/28 07:12:31;;;;;;;20.23;13.15;;;10.50;99.90;;;;;;4962988;28;20023;-79
2022/09/28 07:14:57;;;;;;;18.75;12.68;;;10.60;99.90;;;;;;4949347;28;20034;-78
2022/09/28 07:17:23;;;;;;;18.42;12.85;;;10.60;99.90;;;;;;4948081;28;20051;-80
2022/09/28 07:19:51;;;;;;;19.73;12.32;;;10.60;99.90;;;;;;4963443;28;20034;-79
2022/09/28 07:22:23;;;;;;;20.02;12.90;;;10.70;99.90;;;;;;4965277;28;20135;-78
2022/09/28 07:24:48;;;;;;;24.45;14.70;;;10.70;99.90;;;;;;4966385;28;20436;-75
2022/09/28 07:27:15;;;;;;;18.33;12.70;;;10.70;99.90;;;;;;4951882;28;20037;-74
2022/09/28 07:29:43;;;;;;;17.10;12.77;;;10.60;99.90;;;;;;4948202;28;20139;-75
2022/09/28 07:32:08;;;;;;;26.00;16.15;;;10.60;99.90;;;;;;4967247;28;20546;-79
2022/09/28 07:34:42;;;;;;;14.60;11.35;;;10.50;99.90;;;;;;4961249;28;20031;-80
2022/09/28 07:37:12;;;;;;;19.95;11.80;;;10.60;99.90;;;;;;4965157;28;20023;-79
2022/09/28 07:42:22;;;;;;;14.82;10.05;;;10.50;99.90;;;;;;4965358;28;20049;-78
2022/09/28 07:44:47;;;;;;;15.48;11.20;;;10.50;99.90;;;;;;4960813;28;20027;-80
2022/09/28 07:47:13;;;;;;;18.48;12.45;;;10.60;99.90;;;;;;4960675;28;20443;-75
2022/09/28 07:49:39;;;;;;;19.73;13.25;;;10.70;99.90;;;;;;4956894;28;20049;-80
2022/09/28 07:52:05;;;;;;;19.17;10.70;;;10.70;99.90;;;;;;4963332;28;20444;-81
2022/09/28 07:54:33;;;;;;;16.52;12.07;;;10.70;99.90;;;;;;4966050;28;20039;-79
2022/09/28 07:56:59;;;;;;;24.77;13.82;;;10.80;99.90;;;;;;4964587;28;20401;-75
2022/09/28 07:59:25;;;;;;;19.95;13.40;;;10.80;99.90;;;;;;4962789;28;20031;-78
2022/09/28 08:01:50;;;;;;;14.10;9.82;;;10.90;99.90;;;;;;4965389;28;20286;-79
2022/09/28 08:04:16;;;;;;;15.40;9.15;;;11.00;99.90;;;;;;4964869;28;20041;-79
2022/09/28 08:06:43;;;;;;;15.18;9.30;;;11.00;99.90;;;;;;4961256;28;20035;-79
2022/09/28 08:09:09;;;;;;;8.40;7.40;;;11.00;99.90;;;;;;4963842;28;20026;-79
2022/09/28 08:11:35;;;;;;;12.88;7.35;;;11.10;99.90;;;;;;4963192;28;20035;-79
2022/09/28 08:14:03;;;;;;;14.73;7.57;;;11.10;99.90;;;;;;4958580;28;20041;-75
2022/09/28 08:16:29;;;;;;;8.80;7.03;;;11.10;99.90;;;;;;4949180;28;20027;-78
2022/09/28 08:18:54;;;;;;;7.05;5.88;;;11.30;99.90;;;;;;4950849;28;20027;-78
2022/09/28 08:24:06;;;;;;;6.00;5.40;;;11.40;99.90;;;;;;4959210;28;20115;-79
2022/09/28 08:26:33;;;;;;;5.95;5.30;;;11.50;99.90;;;;;;4952159;28;20412;-79
2022/09/28 08:29:01;;;;;;;7.45;5.40;;;11.50;99.90;;;;;;4962916;28;20070;-78
2022/09/28 08:31:27;;;;;;;5.47;4.60;;;11.60;99.90;;;;;;4964670;28;20106;-79
2022/09/28 08:33:53;;;;;;;6.05;5.45;;;11.60;99.90;;;;;;4960836;28;20045;-78
2022/09/28 08:36:22;;;;;;;6.68;4.90;;;11.70;99.90;;;;;;4961872;28;20030;-76
2022/09/28 08:38:48;;;;;;;6.22;5.00;;;11.80;99.90;;;;;;4960083;28;20027;-78
2022/09/28 08:41:34;;;;;;;6.53;5.32;;;12.00;99.90;;;;;;4963158;28;20039;-74
2022/09/28 08:44:05;;;;;;;5.40;4.90;;;12.10;99.90;;;;;;4957728;28;21083;-75
2022/09/28 08:46:46;;;;;;;5.13;4.63;;;12.40;99.90;;;;;;4945392;28;20050;-77
2022/09/28 08:49:15;;;;;;;6.05;4.50;;;12.70;99.90;;;;;;4961844;28;20604;-78
2022/09/28 08:51:48;;;;;;;4.55;4.07;;;13.10;99.90;;;;;;4963723;28;20326;-78
2022/09/28 08:54:35;;;;;;;4.30;4.00;;;13.50;99.90;;;;;;4959780;28;20035;-77
2022/09/28 08:57:08;;;;;;;4.00;3.65;;;13.60;99.90;;;;;;4970293;28;20019;-77
2022/09/28 08:59:44;;;;;;;5.13;3.10;;;13.70;99.90;;;;;;4950391;28;20035;-78
2022/09/28 09:02:26;;;;;;;3.78;3.42;;;14.10;99.90;;;;;;4964372;28;20093;-78
2022/09/28 09:04:55;;;;;;;3.22;3.00;;;14.60;99.90;;;;;;4961488;28;20102;-78
2022/09/28 09:07:46;;;;;;;3.80;2.63;;;14.90;99.90;;;;;;4964489;28;20019;-78
2022/09/28 09:10:17;;;;;;;2.88;2.67;;;14.50;99.90;;;;;;4963270;28;20027;-78
2022/09/28 09:13:24;;;;;;;3.70;2.92;;;14.60;99.90;;;;;;4960853;28;20023;-78
2022/09/28 09:16:04;;;;;;;6.65;3.05;;;14.50;99.90;;;;;;4923810;28;20050;-78
2022/09/28 09:18:41;;;;;;;3.20;2.90;;;14.30;99.90;;;;;;4951531;28;20051;-77
2022/09/28 09:21:31;;;;;;;638.85;311.33;;;14.10;99.90;;;;;;4949757;28;20035;-74
2022/09/28 09:24:14;;;;;;;5.10;3.80;;;14.00;99.90;;;;;;4959931;28;20031;-78
2022/09/28 09:26:44;;;;;;;4.47;2.80;;;13.90;99.90;;;;;;4960100;28;20032;-79
2022/09/28 09:29:18;;;;;;;5.47;2.80;;;13.90;99.90;;;;;;4952908;28;20030;-78
2022/09/28 09:32:08;;;;;;;2.88;2.50;;;13.90;99.90;;;;;;4945606;28;20023;-78
2022/09/28 09:34:53;;;;;;;2.45;2.28;;;15.70;99.90;;;;;;4962087;28;20031;-78
2022/09/28 09:37:44;;;;;;;5.70;2.65;;;15.80;99.90;;;;;;4963551;28;20035;-78
2022/09/28 09:40:25;;;;;;;2.63;2.42;;;15.50;99.90;;;;;;4961494;28;20027;-78
2022/09/28 09:42:56;;;;;;;6.07;2.30;;;15.20;99.90;;;;;;4959296;28;20078;-78
2022/09/28 09:45:39;;;;;;;3.17;2.47;;;15.00;99.90;;;;;;4943417;28;20027;-77
2022/09/28 09:48:28;;;;;;;35.88;17.48;;;14.90;99.90;;;;;;4960845;28;20015;-79
2022/09/28 09:51:07;;;;;;;1.85;1.75;;;14.70;99.90;;;;;;4958631;28;20035;-78
2022/09/28 09:53:40;;;;;;;3.50;1.30;;;14.40;99.90;;;;;;4964412;28;20039;-79
2022/09/28 09:56:13;;;;;;;6.90;1.42;;;14.40;99.90;;;;;;4949453;28;20468;-77
2022/09/28 09:58:47;;;;;;;4.80;1.75;;;14.30;99.90;;;;;;4953542;28;20183;-79
2022/09/28 10:01:18;;;;;;;2.65;2.20;;;14.40;99.90;;;;;;4963708;28;20066;-79
2022/09/28 10:03:47;;;;;;;3.15;1.73;;;14.50;99.90;;;;;;4961390;28;20078;-78
2022/09/28 10:06:20;;;;;;;4.10;1.85;;;14.50;99.90;;;;;;4947615;28;20027;-78
2022/09/28 10:09:03;;;;;;;2.88;2.03;;;14.60;99.90;;;;;;4962345;28;20093;-79
2022/09/28 10:11:35;;;;;;;4.55;1.95;;;14.60;99.90;;;;;;4962009;28;20058;-77
2022/09/28 10:14:02;;;;;;;2.60;1.83;;;14.60;99.90;;;;;;4962619;28;20058;-76
2022/09/28 10:16:29;;;;;;;3.25;1.83;;;14.70;99.90;;;;;;4950335;28;20019;-75
2022/09/28 10:18:54;;;;;;;5.00;2.08;;;14.60;99.90;;;;;;4947755;28;20070;-73
2022/09/28 10:21:25;;;;;;;2.33;1.52;;;14.50;99.90;;;;;;4963570;28;20019;-78
2022/09/28 10:24:01;;;;;;;2.00;1.90;;;14.80;99.90;;;;;;4951640;28;20023;-77
2022/09/28 10:26:42;;;;;;;4.05;2.50;;;14.90;99.90;;;;;;4964067;28;20023;-78
2022/09/28 10:29:23;;;;;;;2.50;2.22;;;15.20;99.90;;;;;;4969241;28;20027;-79
2022/09/28 10:31:53;;;;;;;2.38;2.13;;;15.10;99.90;;;;;;4961052;28;20035;-78
2022/09/28 10:34:28;;;;;;;3.15;2.40;;;15.10;99.90;;;;;;4966977;28;20030;-78
2022/09/28 10:36:58;;;;;;;4.70;2.67;;;15.00;99.90;;;;;;4952651;28;20194;-78
2022/09/28 10:39:34;;;;;;;3.58;2.55;;;15.00;99.90;;;;;;4961700;28;20027;-77
2022/09/28 10:42:03;;;;;;;3.75;2.10;;;15.10;99.90;;;;;;4959646;28;20031;-76
2022/09/28 10:44:32;;;;;;;2.10;1.85;;;15.20;99.90;;;;;;4945557;28;20118;-77
2022/09/28 10:47:04;;;;;;;3.80;1.50;;;15.40;99.90;;;;;;4963394;28;20510;-77
2022/09/28 10:49:43;;;;;;;3.13;1.50;;;15.30;99.90;;;;;;4965852;28;20026;-78
2022/09/28 10:52:32;;;;;;;2.53;1.30;;;15.20;99.90;;;;;;4960740;28;20047;-78
2022/09/28 10:55:01;;;;;;;4.85;1.40;;;15.00;99.90;;;;;;4968156;28;20046;-78
2022/09/28 10:57:36;;;;;;;1.95;1.60;;;14.90;99.90;;;;;;4962701;28;20050;-79
2022/09/28 11:00:07;;;;;;;2.22;1.20;;;14.90;99.90;;;;;;4947743;28;20023;-78
2022/09/28 11:02:39;;;;;;;1.10;1.00;;;15.30;99.90;;;;;;4960375;28;20046;-76
2022/09/28 11:05:18;;;;;;;3.00;1.30;;;15.40;99.90;;;;;;4961639;28;20039;-77
2022/09/28 11:07:46;;;;;;;1.30;1.20;;;15.50;99.90;;;;;;4965610;28;20034;-78
2022/09/28 11:10:25;;;;;;;4.15;1.20;;;15.50;99.90;;;;;;4963151;28;20113;-78
2022/09/28 11:12:52;;;;;;;1.27;0.95;;;15.80;99.90;;;;;;4965799;28;20054;-77
2022/09/28 11:15:24;;;;;;;1.77;1.15;;;16.60;99.90;;;;;;4946205;28;20360;-77
2022/09/28 11:17:50;;;;;;;2.73;1.10;;;17.10;99.90;;;;;;4962479;28;20110;-77
2022/09/28 11:20:24;;;;;;;1.75;0.80;;;17.50;99.90;;;;;;4956896;28;20146;-77
2022/09/28 11:22:57;;;;;;;1.33;1.08;;;17.80;99.90;;;;;;4947579;28;20137;-77
2022/09/28 11:25:25;;;;;;;1.38;0.90;;;17.90;99.90;;;;;;4942676;28;20578;-79
2022/09/28 11:27:53;;;;;;;2.75;1.50;;;18.20;99.90;;;;;;4966033;28;20109;-77
2022/09/28 11:30:25;;;;;;;6.32;0.90;;;18.00;99.90;;;;;;4954693;28;20027;-78
2022/09/28 11:33:02;;;;;;;1.52;0.90;;;17.60;99.90;;;;;;4953042;28;20105;-78
2022/09/28 11:35:43;;;;;;;1.25;0.90;;;17.20;99.90;;;;;;4967498;28;20061;-77
2022/09/28 11:38:20;;;;;;;2.30;1.05;;;17.10;99.90;;;;;;4964892;28;20037;-76
2022/09/28 11:41:01;;;;;;;1.88;1.10;;;16.80;99.90;;;;;;4954027;28;20030;-78
2022/09/28 11:43:32;;;;;;;3.58;1.23;;;16.70;99.90;;;;;;4950736;28;20149;-77
2022/09/28 11:46:07;;;;;;;0.93;0.93;;;16.60;99.90;;;;;;4966198;28;20038;-80
2022/09/28 11:48:44;;;;;;;1.95;1.02;;;16.40;99.90;;;;;;4960892;28;20063;-77
2022/09/28 11:51:25;;;;;;;1.10;1.10;;;16.40;99.90;;;;;;4962027;28;20024;-77
2022/09/28 11:54:02;;;;;;;10.50;1.70;;;16.50;99.90;;;;;;4962559;28;20035;-77
2022/09/28 11:56:42;;;;;;;2.40;1.10;;;16.60;99.90;;;;;;4961595;28;20031;-78
2022/09/28 11:59:15;;;;;;;3.60;1.20;;;16.90;99.90;;;;;;4968796;28;20018;-78
2022/09/28 12:01:47;;;;;;;1.08;0.98;;;16.80;99.90;;;;;;4963860;28;20022;-77
2022/09/28 12:04:33;;;;;;;0.98;0.98;;;16.80;99.90;;;;;;4954527;28;20030;-78
2022/09/28 12:07:03;;;;;;;4.55;1.90;;;16.90;99.90;;;;;;4933996;28;20054;-78
2022/09/28 12:10:08;;;;;;;2.20;1.20;;;17.20;99.90;;;;;;4964944;28;20031;-78
2022/09/28 12:12:48;;;;;;;1.33;1.00;;;17.30;99.70;;;;;;4950082;28;20059;-77
2022/09/28 12:15:19;;;;;;;2.47;1.30;;;17.10;99.70;;;;;;4963815;28;20510;-79
2022/09/28 12:17:54;;;;;;;1.70;1.30;;;17.10;99.90;;;;;;4961594;28;20023;-77
2022/09/28 12:20:49;;;;;;;1.88;1.00;;;16.90;99.90;;;;;;4959265;28;20059;-78
2022/09/28 12:23:19;;;;;;;1.75;1.13;;;16.80;99.90;;;;;;4961444;28;20027;-78
2022/09/28 12:26:15;;;;;;;1.33;1.00;;;16.80;99.90;;;;;;4958915;28;20055;-78
2022/09/28 12:28:47;;;;;;;4.03;1.02;;;16.70;99.90;;;;;;4964616;28;20110;-79
2022/09/28 12:31:15;;;;;;;3.63;0.80;;;16.50;99.90;;;;;;4947902;28;20066;-79
2022/09/28 12:33:48;;;;;;;0.85;0.80;;;16.40;99.90;;;;;;4951263;28;20069;-78
2022/09/28 12:36:25;;;;;;;;;;;16.30;99.90;;;;;;4964914;28;20162;-78
2022/09/28 12:39:08;;;;;;;2.80;0.70;;;16.10;99.90;;;;;;4946316;28;19910;-78
2022/09/28 12:41:33;;;;;;;;;;;16.10;99.90;;;;;;4962574;28;20041;-78
2022/09/28 12:44:27;;;;;;;1.65;0.80;;;16.10;99.90;;;;;;4960847;28;20487;-80
2022/09/28 12:46:55;;;;;;;1.13;1.13;;;16.10;99.90;;;;;;4961985;28;20024;-79
2022/09/28 12:49:43;;;;;;;1.02;0.80;;;16.20;99.90;;;;;;4949143;28;20027;-79
2022/09/28 12:52:41;;;;;;;1.40;0.85;;;16.20;99.90;;;;;;4960939;28;20033;-80
2022/09/28 12:55:37;;;;;;;1.48;1.30;;;16.40;99.90;;;;;;4945000;28;20031;-79
2022/09/28 12:58:21;;;;;;;2.25;1.00;;;16.50;99.90;;;;;;4963196;28;20026;-80
2022/09/28 13:00:53;;;;;;;1.55;0.75;;;16.60;99.90;;;;;;4965839;28;20015;-78
2022/09/28 13:03:18;;;;;;;4.10;1.00;;;16.60;99.90;;;;;;4963986;28;20032;-78
2022/09/28 13:06:08;;;;;;;1.88;1.00;;;16.60;99.90;;;;;;4960815;28;20098;-78
2022/09/28 13:08:57;;;;;;;1.95;0.93;;;16.60;99.90;;;;;;4960915;28;20030;-79
2022/09/28 13:11:34;;;;;;;1.55;1.30;;;16.60;99.90;;;;;;4958601;28;20449;-78
2022/09/28 13:14:02;;;;;;;1.10;1.08;;;16.70;99.90;;;;;;4947558;28;20027;-78
2022/09/28 13:16:30;;;;;;;1.88;0.90;;;16.90;99.90;;;;;;4960767;28;20019;-79